createdAt,value
2022-11-26T00:01:54.631Z,98654.59
2022-11-26T00:04:57.817Z,98661.84
2022-11-26T00:08:00.764Z,98658.53
2022-11-26T00:11:03.034Z,98661.19
2022-11-26T00:14:12.444Z,98656.56
2022-11-26T00:17:15.208Z,98654.59
2022-11-26T00:20:30.555Z,98667.34
2022-11-26T00:23:32.377Z,98673.81
2022-11-26T00:26:34.095Z,98679.28
2022-11-26T00:29:35.793Z,98681.28
2022-11-26T00:32:37.618Z,98677.75
2022-11-26T00:35:39.330Z,98680.03
2022-11-26T00:38:41.085Z,98676.28
2022-11-26T00:41:46.630Z,98677.28
2022-11-26T00:44:48.515Z,98679.41
2022-11-26T00:47:50.969Z,98679.25
2022-11-26T00:50:52.833Z,98676.28
2022-11-26T00:54:00.804Z,98680.78
2022-11-26T00:57:02.494Z,98687.78
2022-11-26T01:00:17.022Z,98689.63
2022-11-26T01:03:18.839Z,98691.22
2022-11-26T01:06:31.504Z,98696.81
2022-11-26T01:09:33.197Z,98702.34
2022-11-26T01:12:34.807Z,98698.00
2022-11-26T01:15:36.534Z,98702.94
2022-11-26T01:18:38.206Z,98703.84
2022-11-26T01:21:40.209Z,98704.50
2022-11-26T01:24:41.893Z,98714.03
2022-11-26T01:27:43.679Z,98708.69
2022-11-26T01:30:46.039Z,98719.38
2022-11-26T01:33:48.192Z,98713.47
2022-11-26T01:36:50.201Z,98722.31
2022-11-26T01:39:52.808Z,98716.03
2022-11-26T01:43:29.071Z,98731.38
2022-11-26T01:46:34.963Z,98721.94
2022-11-26T01:49:38.586Z,98722.59
2022-11-26T01:52:43.737Z,98718.09
2022-11-26T01:55:52.185Z,98720.50
2022-11-26T01:59:16.806Z,98717.22
2022-11-26T02:02:20.429Z,98720.59
2022-11-26T02:05:28.405Z,98731.94
2022-11-26T02:08:32.257Z,98727.19
2022-11-26T02:11:33.978Z,98732.28
2022-11-26T02:14:38.636Z,98734.66
2022-11-26T02:17:44.327Z,98731.22
2022-11-26T02:20:54.159Z,98736.31
2022-11-26T02:24:07.794Z,98742.81
2022-11-26T02:27:35.991Z,98745.69
2022-11-26T02:30:46.273Z,98744.00
2022-11-26T02:33:56.030Z,98739.41
2022-11-26T02:37:10.961Z,98746.09
2022-11-26T02:40:12.831Z,98742.00
2022-11-26T02:43:16.206Z,98737.16
2022-11-26T02:46:18.759Z,98731.13
2022-11-26T02:49:21.869Z,98732.78
2022-11-26T02:52:23.620Z,98736.81
2022-11-26T02:55:32.485Z,98738.31
2022-11-26T02:58:34.651Z,98745.53
2022-11-26T03:01:40.014Z,98747.19
2022-11-26T03:04:46.081Z,98737.41
2022-11-26T03:07:49.906Z,98746.69
2022-11-26T03:10:51.695Z,98743.66
2022-11-26T03:13:53.411Z,98744.31
2022-11-26T03:16:55.446Z,98733.22
2022-11-26T03:19:57.227Z,98746.19
2022-11-26T03:22:59.179Z,98746.19
2022-11-26T03:26:01.316Z,98744.66
2022-11-26T03:29:03.160Z,98749.84
2022-11-26T03:32:05.888Z,98753.03
2022-11-26T03:35:13.034Z,98762.56
2022-11-26T03:38:15.225Z,98762.91
2022-11-26T03:41:17.050Z,98762.72
2022-11-26T03:44:19.287Z,98762.38
2022-11-26T03:47:21.314Z,98755.94
2022-11-26T03:50:23.094Z,98767.34
2022-11-26T03:53:25.347Z,98766.84
2022-11-26T03:56:27.430Z,98776.38
2022-11-26T03:59:29.394Z,98770.19
2022-11-26T04:02:31.464Z,98777.34
2022-11-26T04:05:33.161Z,98767.56
2022-11-26T04:08:35.412Z,98765.44
2022-11-26T04:11:37.315Z,98773.41
2022-11-26T04:14:39.356Z,98779.78
2022-11-26T04:17:41.246Z,98790.06
2022-11-26T04:20:43.041Z,98793.41
2022-11-26T04:23:44.997Z,98778.31
2022-11-26T04:26:47.146Z,98789.53
2022-11-26T04:29:48.843Z,98786.88
2022-11-26T04:32:50.869Z,98789.00
2022-11-26T04:35:53.607Z,98790.84
2022-11-26T04:38:55.570Z,98788.84
2022-11-26T04:41:57.753Z,98795.63
2022-11-26T04:44:59.472Z,98802.88
2022-11-26T04:48:01.205Z,98804.28
2022-11-26T04:51:03.038Z,98806.72
2022-11-26T04:54:07.502Z,98813.03
2022-11-26T04:57:13.321Z,98811.16
2022-11-26T05:00:17.004Z,98820.72
2022-11-26T05:03:19.683Z,98819.69
2022-11-26T05:06:21.426Z,98817.38
2022-11-26T05:09:23.452Z,98820.97
2022-11-26T05:12:25.433Z,98820.22
2022-11-26T05:15:30.089Z,98824.59
2022-11-26T05:18:32.159Z,98818.88
2022-11-26T05:21:34.009Z,98817.88
2022-11-26T05:24:36.624Z,98818.69
2022-11-26T05:27:38.544Z,98822.88
2022-11-26T05:30:40.231Z,98824.38
2022-11-26T05:33:42.202Z,98829.38
2022-11-26T05:36:44.098Z,98830.69
2022-11-26T05:39:45.833Z,98839.16
2022-11-26T05:42:47.791Z,98843.75
2022-11-26T05:45:49.636Z,98842.50
2022-11-26T05:48:51.453Z,98851.97
2022-11-26T05:51:53.521Z,98848.53
2022-11-26T05:54:55.330Z,98854.88
2022-11-26T05:57:57.813Z,98856.19
2022-11-26T06:00:59.658Z,98844.00
2022-11-26T06:04:01.565Z,98862.50
2022-11-26T06:07:03.473Z,98869.69
2022-11-26T06:10:06.244Z,98873.25
2022-11-26T06:13:09.197Z,98873.59
2022-11-26T06:16:11.036Z,98872.09
2022-11-26T06:19:12.943Z,98887.88
2022-11-26T06:22:14.969Z,98887.69
2022-11-26T06:25:17.653Z,98887.03
2022-11-26T06:28:19.812Z,98887.88
2022-11-26T06:31:21.643Z,98889.88
2022-11-26T06:34:23.430Z,98890.75
2022-11-26T06:37:26.039Z,98892.91
2022-11-26T06:40:28.188Z,98885.47
2022-11-26T06:43:31.086Z,98885.47
2022-11-26T06:46:35.029Z,98893.44
2022-11-26T06:49:37.484Z,98898.25
2022-11-26T06:52:39.763Z,98905.72
2022-11-26T06:59:06.763Z,98906.25
2022-11-26T07:02:09.957Z,98907.13
2022-11-26T07:14:40.122Z,98936.72
2022-11-26T07:17:42.070Z,98941.22
2022-11-26T07:20:43.919Z,98938.06
2022-11-26T07:23:45.825Z,98951.38
2022-11-26T07:26:47.688Z,98952.84
2022-11-26T07:34:55.882Z,98954.88
2022-11-26T07:37:57.823Z,98959.44
2022-11-26T07:41:05.211Z,98956.94
2022-11-26T07:44:07.247Z,98960.31
2022-11-26T07:47:09.360Z,98965.03
2022-11-26T07:50:11.563Z,98968.69
2022-11-26T07:53:14.358Z,98970.34
2022-11-26T07:56:16.484Z,98979.56
2022-11-26T07:59:18.875Z,98976.84
2022-11-26T08:02:20.822Z,98978.81
2022-11-26T08:05:23.037Z,98978.16
2022-11-26T08:08:24.868Z,98977.78
2022-11-26T08:11:29.228Z,98982.34
2022-11-26T08:14:31.163Z,98986.81
2022-11-26T08:17:33.099Z,98987.66
2022-11-26T08:20:34.936Z,98986.88
2022-11-26T08:23:37.244Z,98991.56
2022-11-26T08:26:43.892Z,98996.78
2022-11-26T08:29:46.565Z,98994.41
2022-11-26T08:32:48.597Z,98995.91
2022-11-26T08:36:06.595Z,99000.50
2022-11-26T08:39:13.713Z,98995.66
2022-11-26T08:42:15.848Z,98999.63
2022-11-26T08:45:17.663Z,99003.16
2022-11-26T08:48:19.576Z,99001.75
2022-11-26T08:51:21.458Z,99005.88
2022-11-26T08:54:24.027Z,99006.88
2022-11-26T08:57:26.049Z,99015.72
2022-11-26T09:00:27.985Z,99015.63
2022-11-26T09:03:32.378Z,99019.53
2022-11-26T09:06:40.918Z,99019.53
2022-11-26T09:09:42.848Z,99021.56
2022-11-26T09:12:44.821Z,99018.44
2022-11-26T09:15:46.626Z,99017.00
2022-11-26T09:18:48.556Z,99020.75
2022-11-26T09:21:50.664Z,99023.44
2022-11-26T09:24:52.503Z,99027.81
2022-11-26T09:27:54.405Z,99020.00
2022-11-26T09:31:00.365Z,99014.44
2022-11-26T09:34:02.825Z,99023.19
2022-11-26T09:37:04.838Z,99029.31
2022-11-26T09:40:07.614Z,99026.13
2022-11-26T09:43:39.928Z,99028.38
2022-11-26T09:47:11.089Z,99022.31
2022-11-26T09:50:21.556Z,99031.28
2022-11-26T09:53:26.792Z,99025.84
2022-11-26T09:56:28.944Z,99029.41
2022-11-26T09:59:30.883Z,99034.91
2022-11-26T10:02:40.954Z,99031.63
2022-11-26T10:05:58.911Z,99025.41
2022-11-26T10:09:23.396Z,99032.84
2022-11-26T10:13:17.218Z,99036.06
2022-11-26T10:16:29.357Z,99036.00
2022-11-26T10:19:58.377Z,99031.31
2022-11-26T10:23:11.809Z,99036.91
2022-11-26T10:26:24.013Z,99029.59
2022-11-26T10:29:29.193Z,99028.38
2022-11-26T10:32:37.537Z,99024.94
2022-11-26T10:35:42.258Z,99025.63
2022-11-26T10:38:45.104Z,99021.59
2022-11-26T10:41:47.922Z,99024.94
2022-11-26T10:44:52.255Z,99021.94
2022-11-26T10:48:22.457Z,99020.09
2022-11-26T10:51:30.483Z,99021.16
2022-11-26T10:54:38.684Z,99022.13
2022-11-26T10:57:44.038Z,99013.25
2022-11-26T11:00:53.321Z,99021.22
2022-11-26T11:04:13.637Z,99023.34
2022-11-26T11:07:35.575Z,99015.78
2022-11-26T11:10:37.702Z,99012.88
2022-11-26T11:13:42.569Z,99021.41
2022-11-26T11:16:46.443Z,99020.19
2022-11-26T11:19:48.953Z,99020.06
2022-11-26T11:22:59.328Z,99017.72
2022-11-26T11:26:04.449Z,99014.44
2022-11-26T11:29:26.289Z,99018.63
2022-11-26T11:32:39.792Z,99018.59
2022-11-26T11:35:42.158Z,99021.38
2022-11-26T11:38:52.112Z,99026.38
2022-11-26T11:41:55.905Z,99027.06
2022-11-26T11:44:58.878Z,99030.63
2022-11-26T11:48:21.100Z,99030.28
2022-11-26T11:52:08.057Z,99040.88
2022-11-26T11:55:22.174Z,99036.81
2022-11-26T11:58:39.501Z,99046.31
2022-11-26T12:01:50.541Z,99037.19
2022-11-26T12:05:13.618Z,99045.75
2022-11-26T12:08:54.208Z,99047.19
2022-11-26T12:12:14.344Z,99046.06
2022-11-26T12:15:38.992Z,99054.50
2022-11-26T12:19:04.067Z,99058.75
2022-11-26T12:22:52.755Z,99059.19
2022-11-26T12:26:22.788Z,99053.63
2022-11-26T12:29:41.181Z,99054.66
2022-11-26T12:32:52.021Z,99064.66
2022-11-26T12:35:56.909Z,99063.13
2022-11-26T12:39:19.492Z,99066.91
2022-11-26T12:42:35.456Z,99060.28
2022-11-26T12:45:43.962Z,99060.22
2022-11-26T12:48:54.559Z,99054.78
2022-11-26T12:52:15.476Z,99054.97
2022-11-26T12:55:28.231Z,99050.44
2022-11-26T12:58:52.066Z,99045.66
2022-11-26T13:01:54.758Z,99046.03
2022-11-26T13:04:57.661Z,99041.66
2022-11-26T13:08:19.985Z,99047.06
2022-11-26T13:11:48.347Z,99044.47
2022-11-26T13:14:56.887Z,99043.94
2022-11-26T13:18:00.416Z,99041.81
2022-11-26T13:21:44.019Z,99043.69
2022-11-26T13:25:01.862Z,99039.94
2022-11-26T13:28:31.558Z,99047.28
2022-11-26T13:31:51.115Z,99049.94
2022-11-26T13:34:53.101Z,99061.28
2022-11-26T13:38:05.512Z,99052.34
2022-11-26T13:41:26.438Z,99052.97
2022-11-26T13:44:57.772Z,99054.84
2022-11-26T13:48:14.853Z,99059.97
2022-11-26T13:51:35.968Z,99060.81
2022-11-26T13:54:47.057Z,99065.53
2022-11-26T13:58:00.194Z,99063.88
2022-11-26T14:01:35.774Z,99062.97
2022-11-26T14:04:41.159Z,99057.19
2022-11-26T14:07:45.098Z,99062.03
2022-11-26T14:10:47.556Z,99062.97
2022-11-26T14:14:24.691Z,99072.06
2022-11-26T14:17:32.465Z,99080.38
2022-11-26T14:21:02.032Z,99086.31
2022-11-26T14:24:04.854Z,99081.56
2022-11-26T14:27:07.885Z,99092.94
2022-11-26T14:30:13.358Z,99084.53
2022-11-26T14:33:19.257Z,99079.66
2022-11-26T14:36:26.597Z,99084.16
2022-11-26T14:39:29.793Z,99096.00
2022-11-26T14:42:32.294Z,99095.53
2022-11-26T14:45:35.410Z,99097.38
2022-11-26T14:48:43.231Z,99102.22
2022-11-26T14:51:46.674Z,99102.03
2022-11-26T14:54:57.248Z,99101.22
2022-11-26T14:58:07.587Z,99102.41
2022-11-26T15:01:24.654Z,99107.44
2022-11-26T15:04:34.979Z,99111.16
2022-11-26T15:07:38.636Z,99110.13
2022-11-26T15:10:46.704Z,99109.28
2022-11-26T15:13:48.879Z,99107.50
2022-11-26T15:16:59.432Z,99107.63
2022-11-26T15:20:03.458Z,99106.41
2022-11-26T15:23:07.209Z,99097.00
2022-11-26T15:26:15.870Z,99099.34
2022-11-26T15:29:41.591Z,99099.72
2022-11-26T15:32:43.911Z,99097.84
2022-11-26T15:35:47.293Z,99099.72
2022-11-26T15:39:06.805Z,99111.19
2022-11-26T15:42:28.667Z,99104.13
2022-11-26T15:45:41.664Z,99102.41
2022-11-26T15:48:53.470Z,99105.50
2022-11-26T15:52:11.278Z,99108.88
2022-11-26T15:55:20.938Z,99106.91
2022-11-26T15:58:29.486Z,99106.72
2022-11-26T16:01:35.108Z,99109.31
2022-11-26T16:04:43.711Z,99106.00
2022-11-26T16:08:23.281Z,99119.88
2022-11-26T16:11:25.793Z,99105.06
2022-11-26T16:14:39.764Z,99115.66
2022-11-26T16:17:42.555Z,99120.88
2022-11-26T16:20:47.896Z,99119.88
2022-11-26T16:24:22.149Z,99120.69
2022-11-26T16:27:28.325Z,99116.50
2022-11-26T16:30:31.430Z,99126.19
2022-11-26T16:33:33.837Z,99122.66
2022-11-26T16:36:36.346Z,99135.03
2022-11-26T16:39:40.847Z,99123.56
2022-11-26T16:42:43.525Z,99132.97
2022-11-26T16:45:46.812Z,99127.75
2022-11-26T16:48:49.810Z,99127.56
2022-11-26T16:51:52.313Z,99121.06
2022-11-26T16:54:54.643Z,99125.63
2022-11-26T16:57:59.889Z,99134.38
2022-11-26T17:01:02.311Z,99135.47
2022-11-26T17:04:05.285Z,99133.78
2022-11-26T17:07:39.918Z,99137.22
2022-11-26T17:10:42.080Z,99142.56
2022-11-26T17:13:44.514Z,99142.44
2022-11-26T17:16:49.777Z,99144.88
2022-11-26T17:19:52.422Z,99141.31
2022-11-26T17:22:54.530Z,99141.16
2022-11-26T17:25:57.402Z,99133.28
2022-11-26T17:29:01.378Z,99132.97
2022-11-26T17:32:05.042Z,99135.78
2022-11-26T17:35:07.650Z,99140.06
2022-11-26T17:38:20.569Z,99124.44
2022-11-26T17:41:23.090Z,99127.94
2022-11-26T17:44:25.232Z,99133.47
2022-11-26T17:47:27.755Z,99138.00
2022-11-26T17:50:31.336Z,99146.75
2022-11-26T17:53:33.408Z,99140.69
2022-11-26T17:56:35.665Z,99143.88
2022-11-26T17:59:38.353Z,99146.31
2022-11-26T18:02:40.805Z,99140.91
2022-11-26T18:05:43.219Z,99148.53
2022-11-26T18:08:45.756Z,99137.19
2022-11-26T18:11:52.593Z,99142.19
2022-11-26T18:14:59.281Z,99147.53
2022-11-26T18:18:02.260Z,99136.81
2022-11-26T18:21:05.935Z,99137.63
2022-11-26T18:24:10.373Z,99142.84
2022-11-26T18:27:12.396Z,99136.63
2022-11-26T18:30:15.726Z,99160.81
2022-11-26T18:33:19.769Z,99154.56
2022-11-26T18:36:22.505Z,99155.31
2022-11-26T18:39:24.825Z,99159.53
2022-11-26T18:42:37.208Z,99155.66
2022-11-26T18:45:43.004Z,99160.69
2022-11-26T18:48:47.508Z,99159.78
2022-11-26T18:51:50.067Z,99150.72
2022-11-26T18:54:52.247Z,99161.91
2022-11-26T18:57:54.497Z,99156.50
2022-11-26T19:00:59.228Z,99162.91
2022-11-26T19:04:01.432Z,99162.91
2022-11-26T19:07:03.799Z,99164.28
2022-11-26T19:10:06.530Z,99172.03
2022-11-26T19:13:10.083Z,99167.34
2022-11-26T19:16:16.711Z,99171.34
2022-11-26T19:19:19.614Z,99170.31
2022-11-26T19:22:22.043Z,99175.16
2022-11-26T19:25:25.034Z,99177.31
2022-11-26T19:28:28.001Z,99178.47
2022-11-26T19:31:31.157Z,99180.03
2022-11-26T19:34:33.383Z,99181.25
2022-11-26T19:37:35.889Z,99185.28
2022-11-26T19:40:40.551Z,99186.84
2022-11-26T19:43:43.647Z,99194.22
2022-11-26T19:46:48.717Z,99191.16
2022-11-26T19:49:51.347Z,99189.19
2022-11-26T19:52:53.609Z,99191.25
2022-11-26T19:56:34.421Z,99180.63
2022-11-26T19:59:37.872Z,99189.94
2022-11-26T20:02:40.221Z,99186.88
2022-11-26T20:05:43.954Z,99203.38
2022-11-26T20:08:47.472Z,99202.06
2022-11-26T20:15:06.264Z,99209.16
2022-11-26T20:18:10.250Z,99198.53
2022-11-26T20:21:15.599Z,99199.75
2022-11-26T20:24:18.778Z,99195.81
2022-11-26T20:27:21.102Z,99205.34
2022-11-26T20:30:25.361Z,99196.09
2022-11-26T20:33:27.864Z,99201.31
2022-11-26T20:36:30.983Z,99199.47
2022-11-26T20:39:33.457Z,99209.34
2022-11-26T20:42:35.667Z,99211.84
2022-11-26T20:45:39.375Z,99200.56
2022-11-26T20:48:43.736Z,99198.31
2022-11-26T20:51:46.278Z,99201.03
2022-11-26T20:54:53.467Z,99214.38
2022-11-26T20:57:57.091Z,99219.03
2022-11-26T21:00:59.915Z,99225.44
2022-11-26T21:04:02.630Z,99238.38
2022-11-26T21:07:10.856Z,99227.59
2022-11-26T21:10:17.136Z,99230.38
2022-11-26T21:13:19.978Z,99230.28
2022-11-26T21:16:23.768Z,99231.59
2022-11-26T21:19:26.765Z,99237.06
2022-11-26T21:22:30.026Z,99234.09
2022-11-26T21:25:37.246Z,99236.25
2022-11-26T21:28:40.309Z,99239.13
2022-11-26T21:31:43.414Z,99237.25
2022-11-26T21:34:46.717Z,99238.47
2022-11-26T21:37:48.742Z,99236.78
2022-11-26T21:40:50.920Z,99225.66
2022-11-26T21:43:52.960Z,99225.66
2022-11-26T21:46:54.897Z,99231.25
2022-11-26T21:49:57.696Z,99235.44
2022-11-26T21:53:01.863Z,99239.25
2022-11-26T21:56:08.950Z,99236.81
2022-11-26T21:59:10.923Z,99243.09
2022-11-26T22:02:13.491Z,99233.47
2022-11-26T22:05:15.527Z,99237.19
2022-11-26T22:08:18.085Z,99244.44
2022-11-26T22:11:21.877Z,99241.72
2022-11-26T22:14:24.335Z,99238.09
2022-11-26T22:17:27.073Z,99236.78
2022-11-26T22:20:29.101Z,99231.59
2022-11-26T22:23:32.528Z,99231.00
2022-11-26T22:26:34.727Z,99236.78
2022-11-26T22:29:37.328Z,99228.19
2022-11-26T22:32:39.959Z,99232.63
2022-11-26T22:35:41.938Z,99232.56
2022-11-26T22:38:44.206Z,99232.75
2022-11-26T22:41:47.185Z,99238.22
2022-11-26T22:44:49.266Z,99230.91
2022-11-26T22:47:52.955Z,99230.78
2022-11-26T22:50:55.449Z,99230.03
2022-11-26T22:54:03.771Z,99227.59
2022-11-26T22:57:05.718Z,99218.31
2022-11-26T23:00:14.694Z,99218.88
2022-11-26T23:03:17.981Z,99228.47
2022-11-26T23:06:21.466Z,99219.63
2022-11-26T23:09:23.789Z,99229.38
2022-11-26T23:12:25.761Z,99221.50
2022-11-26T23:15:27.939Z,99218.13
2022-11-26T23:18:30.082Z,99215.78
2022-11-26T23:21:39.737Z,99217.81
2022-11-26T23:24:41.791Z,99209.94
2022-11-26T23:27:43.610Z,99213.44
2022-11-26T23:30:47.649Z,99208.56
2022-11-26T23:33:49.966Z,99214.72
2022-11-26T23:36:53.477Z,99213.78
2022-11-26T23:39:55.303Z,99210.78
2022-11-26T23:42:57.279Z,99212.63
2022-11-26T23:46:06.284Z,99207.44
2022-11-26T23:49:08.361Z,99211.41
2022-11-26T23:52:10.988Z,99207.69
2022-11-26T23:55:12.832Z,99212.97
2022-11-26T23:58:15.502Z,99203.94
